Time;durP1;ratioP1;P1;durP2;ratioP2;P2;SDS_P1;SDS_P2;PMS_P1;PMS_P2;Temp;Humidity;BMP_temperature;BMP_pressure;BME280_temperature;BME280_humidity;BME280_pressure;Samples;Min_cycle;Max_cycle;Signal;HPM_P1;HPM_P2
2021/12/14 00:01:46;;;;;;;;;;;;;;;;;;5065177;28;19971;-69
2021/12/14 00:04:17;;;;;;;;;;;;;;;;;;5068470;28;19929;-69
2021/12/14 00:06:46;;;;;;;;;;;;;;;;;;5064748;28;19936;-69
2021/12/14 00:09:24;;;;;;;;;;;;;;;;;;5088903;28;19953;-69
2021/12/14 00:17:12;;;;;;;;;;;;;;;;;;5068279;28;19924;-69
2021/12/14 00:19:40;;;;;;;;;;;;;;;;;;5064580;28;20254;-69
2021/12/14 00:22:32;;;;;;;;;;;;;;;;;;5067363;28;19929;-69
2021/12/14 00:25:04;;;;;;;;;;;;;;;;;;5070317;28;20245;-70
2021/12/14 00:27:35;;;;;;;;;;;;;;;;;;5076629;28;19924;-69
2021/12/14 00:30:07;;;;;;;;;;;;;;;;;;5077342;28;19933;-69
2021/12/14 00:32:37;;;;;;;;;;;;;;;;;;5061207;28;20626;-69
2021/12/14 00:35:12;;;;;;;;;;;;;;;;;;5071408;28;19935;-69
2021/12/14 00:37:45;;;;;;;;;;;;;;;;;;5068358;28;20308;-70
2021/12/14 00:40:17;;;;;;;;;;;;;;;;;;5074553;28;19949;-70
2021/12/14 00:42:48;;;;;;;;;;;;;;;;;;5064110;28;19973;-69
2021/12/14 00:45:20;;;;;;;;;;;;;;;;;;5081254;28;19936;-69
2021/12/14 00:47:48;;;;;;;;;;;;;;;;;;5092547;28;19992;-70
2021/12/14 00:50:19;;;;;;;;;;;;;;;;;;5090174;28;19924;-70
2021/12/14 00:52:49;;;;;;;;;;;;;;;;;;5090803;28;20023;-69
2021/12/14 00:55:19;;;;;;;;;;;;;;;;;;5087222;28;19928;-70
2021/12/14 00:57:52;;;;;;;;;;;;;;;;;;5095358;28;20354;-70
2021/12/14 01:00:21;;;;;;;;;;;;;;;;;;5092204;28;20010;-70
2021/12/14 01:02:58;;;;;;;;;;;;;;;;;;5094385;28;19931;-69
2021/12/14 01:05:31;;;;;;;;;;;;;;;;;;5091075;28;19932;-69
2021/12/14 01:07:59;;;;;;;;;;;;;;;;;;5088878;28;19924;-69
2021/12/14 01:10:32;;;;;;;;;;;;;;;;;;5083041;28;20333;-69
2021/12/14 01:13:06;;;;;;;;;;;;;;;;;;5089192;28;20324;-70
2021/12/14 01:18:47;;;;;;;;;;;;;;;;;;5096684;28;19924;-70
2021/12/14 01:21:44;;;;;;;;;;;;;;;;;;5074051;28;19936;-69
2021/12/14 01:24:10;;;;;;;;;;;;;;;;;;5087256;28;19981;-69
2021/12/14 01:26:43;;;;;;;;;;;;;;;;;;5084545;28;19956;-69
2021/12/14 01:29:17;;;;;;;;;;;;;;;;;;5088761;28;19924;-70
2021/12/14 01:31:49;;;;;;;;;;;;;;;;;;5100820;28;19927;-69
2021/12/14 01:34:17;;;;;;;;;;;;;;;;;;5088919;28;19924;-69
2021/12/14 01:36:49;;;;;;;;;;;;;;;;;;5087265;28;19924;-70
2021/12/14 01:41:49;;;;;;;;;;;;;;;;;;5087918;28;19928;-70
2021/12/14 01:44:17;;;;;;;;;;;;;;;;;;5084514;28;19927;-70
2021/12/14 01:46:55;;;;;;;;;;;;;;;;;;5084089;28;19994;-69
2021/12/14 01:49:23;;;;;;;;;;;;;;;;;;5080830;28;19924;-69
2021/12/14 01:51:52;;;;;;;;;;;;;;;;;;5079076;28;19924;-69
2021/12/14 01:54:20;;;;;;;;;;;;;;;;;;5082782;28;20046;-69
2021/12/14 01:56:51;;;;;;;;;;;;;;;;;;5092156;28;19931;-69
2021/12/14 01:59:23;;;;;;;;;;;;;;;;;;5087152;28;19934;-69
2021/12/14 02:02:24;;;;;;;;;;;;;;;;;;5086965;28;19924;-69
2021/12/14 02:04:54;;;;;;;;;;;;;;;;;;5087136;28;19935;-69
2021/12/14 02:07:23;;;;;;;;;;;;;;;;;;5088536;28;20303;-69
2021/12/14 02:09:53;;;;;;;;;;;;;;;;;;5088612;28;20278;-70
2021/12/14 02:12:22;;;;;;;;;;;;;;;;;;5089433;28;19924;-70
2021/12/14 02:14:50;;;;;;;;;;;;;;;;;;5087615;28;19928;-70
2021/12/14 02:17:19;;;;;;;;;;;;;;;;;;5084462;28;19934;-70
2021/12/14 02:19:50;;;;;;;;;;;;;;;;;;5083595;28;19931;-70
2021/12/14 02:22:19;;;;;;;;;;;;;;;;;;5087906;28;19943;-70
2021/12/14 02:24:56;;;;;;;;;;;;;;;;;;5087189;28;19931;-69
2021/12/14 02:27:26;;;;;;;;;;;;;;;;;;5084680;28;19935;-70
2021/12/14 02:29:57;;;;;;;;;;;;;;;;;;5088352;28;19950;-70
2021/12/14 02:32:31;;;;;;;;;;;;;;;;;;5080098;28;19924;-70
2021/12/14 02:35:03;;;;;;;;;;;;;;;;;;5089121;28;20292;-70
2021/12/14 02:37:34;;;;;;;;;;;;;;;;;;5086508;28;19924;-70
2021/12/14 02:40:13;;;;;;;;;;;;;;;;;;5095304;28;19952;-70
2021/12/14 02:42:44;;;;;;;;;;;;;;;;;;5079219;28;19927;-69
2021/12/14 02:45:13;;;;;;;;;;;;;;;;;;5083243;28;19924;-69
2021/12/14 02:47:42;;;;;;;;;;;;;;;;;;5088152;28;20357;-69
2021/12/14 02:50:13;;;;;;;;;;;;;;;;;;5089917;28;19959;-69
2021/12/14 02:52:43;;;;;;;;;;;;;;;;;;5086124;28;19925;-69
2021/12/14 02:55:14;;;;;;;;;;;;;;;;;;5082853;28;19935;-69
2021/12/14 02:57:41;;;;;;;;;;;;;;;;;;5081036;28;20012;-68
2021/12/14 03:00:11;;;;;;;;;;;;;;;;;;5085674;28;19924;-68
2021/12/14 03:02:40;;;;;;;;;;;;;;;;;;5079504;28;19980;-68
2021/12/14 03:05:09;;;;;;;;;;;;;;;;;;5082767;28;19924;-68
2021/12/14 03:07:43;;;;;;;;;;;;;;;;;;5100702;28;20340;-68
2021/12/14 03:12:48;;;;;;;;;;;;;;;;;;5084179;28;19928;-68
2021/12/14 03:15:17;;;;;;;;;;;;;;;;;;5085901;28;19928;-68
2021/12/14 03:17:46;;;;;;;;;;;;;;;;;;5098555;28;19924;-69
2021/12/14 03:20:14;;;;;;;;;;;;;;;;;;5083399;28;19928;-68
2021/12/14 03:22:44;;;;;;;;;;;;;;;;;;5082061;28;19932;-68
2021/12/14 03:25:15;;;;;;;;;;;;;;;;;;5082004;28;20383;-68
2021/12/14 03:27:44;;;;;;;;;;;;;;;;;;5086416;28;19927;-68
2021/12/14 03:30:14;;;;;;;;;;;;;;;;;;5081985;28;19992;-68
2021/12/14 03:32:47;;;;;;;;;;;;;;;;;;5077540;28;19924;-68
2021/12/14 03:35:14;;;;;;;;;;;;;;;;;;5089235;28;20272;-68
2021/12/14 03:37:46;;;;;;;;;;;;;;;;;;5099178;28;19954;-68
2021/12/14 03:40:20;;;;;;;;;;;;;;;;;;5064057;28;19928;-68
2021/12/14 03:42:51;;;;;;;;;;;;;;;;;;5081729;28;19947;-68
2021/12/14 03:45:23;;;;;;;;;;;;;;;;;;5083799;28;20632;-69
2021/12/14 03:47:56;;;;;;;;;;;;;;;;;;5081909;28;20363;-68
2021/12/14 03:50:26;;;;;;;;;;;;;;;;;;5098141;28;19930;-68
2021/12/14 03:52:56;;;;;;;;;;;;;;;;;;5087357;28;19924;-69
2021/12/14 03:55:24;;;;;;;;;;;;;;;;;;5089001;28;20264;-68
2021/12/14 03:57:55;;;;;;;;;;;;;;;;;;5084370;28;19928;-68
2021/12/14 04:00:24;;;;;;;;;;;;;;;;;;5058273;28;20456;-68
2021/12/14 04:02:52;;;;;;;;;;;;;;;;;;5084569;28;19996;-68
2021/12/14 04:05:22;;;;;;;;;;;;;;;;;;5082234;28;20623;-68
2021/12/14 04:07:54;;;;;;;;;;;;;;;;;;5072064;28;20371;-68
2021/12/14 04:10:22;;;;;;;;;;;;;;;;;;5071162;28;20129;-69
2021/12/14 04:12:50;;;;;;;;;;;;;;;;;;5082213;28;19932;-69
2021/12/14 04:15:21;;;;;;;;;;;;;;;;;;5093257;28;19955;-68
2021/12/14 04:17:52;;;;;;;;;;;;;;;;;;5082154;28;19980;-69
2021/12/14 04:20:26;;;;;;;;;;;;;;;;;;5079880;28;19927;-69
2021/12/14 04:22:54;;;;;;;;;;;;;;;;;;5083868;28;19978;-68
2021/12/14 04:25:26;;;;;;;;;;;;;;;;;;5087894;28;20470;-68
2021/12/14 04:27:59;;;;;;;;;;;;;;;;;;5088068;28;20000;-69
2021/12/14 04:30:27;;;;;;;;;;;;;;;;;;5088261;28;20378;-69
2021/12/14 04:32:59;;;;;;;;;;;;;;;;;;5090113;28;19984;-69
2021/12/14 04:35:30;;;;;;;;;;;;;;;;;;5087850;28;19934;-68
2021/12/14 04:38:05;;;;;;;;;;;;;;;;;;5089668;28;19927;-68
2021/12/14 04:51:57;;;;;;;;;;;;;;;;;;5086625;28;19931;-68
2021/12/14 04:51:58;;;;;;;;;;;;;;;;;;5082707;28;20309;-68
2021/12/14 04:54:31;;;;;;;;;;;;;;;;;;5071558;28;19928;-68
2021/12/14 04:57:08;;;;;;;;;;;;;;;;;;5086042;28;19928;-68
2021/12/14 04:59:41;;;;;;;;;;;;;;;;;;5071673;28;20349;-68
2021/12/14 05:02:12;;;;;;;;;;;;;;;;;;5080274;28;19928;-68
2021/12/14 05:04:42;;;;;;;;;;;;;;;;;;5073340;28;19924;-68
2021/12/14 05:10:01;;;;;;;;;;;;;;;;;;5081033;28;19928;-69
2021/12/14 05:12:33;;;;;;;;;;;;;;;;;;5082104;28;19924;-68
2021/12/14 05:15:03;;;;;;;;;;;;;;;;;;5087724;28;19985;-69
2021/12/14 05:17:34;;;;;;;;;;;;;;;;;;5086365;28;19932;-69
2021/12/14 05:20:02;;;;;;;;;;;;;;;;;;5085474;28;20385;-69
2021/12/14 05:22:33;;;;;;;;;;;;;;;;;;5082847;28;19928;-68
2021/12/14 05:25:05;;;;;;;;;;;;;;;;;;5086158;28;20771;-69
2021/12/14 05:27:36;;;;;;;;;;;;;;;;;;5086523;28;19928;-68
2021/12/14 05:30:10;;;;;;;;;;;;;;;;;;5083443;28;19932;-70
2021/12/14 05:32:42;;;;;;;;;;;;;;;;;;5080312;28;19952;-70
2021/12/14 05:35:11;;;;;;;;;;;;;;;;;;5087941;28;19993;-70
2021/12/14 05:37:51;;;;;;;;;;;;;;;;;;5088167;28;20476;-70
2021/12/14 05:43:13;;;;;;;;;;;;;;;;;;5047699;28;19932;-68
2021/12/14 05:45:44;;;;;;;;;;;;;;;;;;5084052;28;19953;-69
2021/12/14 05:48:15;;;;;;;;;;;;;;;;;;5082528;28;20421;-70
2021/12/14 05:50:45;;;;;;;;;;;;;;;;;;5081350;28;19932;-68
2021/12/14 05:53:17;;;;;;;;;;;;;;;;;;5081032;28;19935;-68
2021/12/14 05:55:48;;;;;;;;;;;;;;;;;;5084615;28;19981;-68
2021/12/14 05:58:19;;;;;;;;;;;;;;;;;;5089118;28;19951;-68
2021/12/14 06:00:48;;;;;;;;;;;;;;;;;;5082629;28;19924;-68
2021/12/14 06:03:21;;;;;;;;;;;;;;;;;;5087155;28;19928;-68
2021/12/14 06:05:51;;;;;;;;;;;;;;;;;;5086234;28;19924;-69
2021/12/14 06:08:22;;;;;;;;;;;;;;;;;;5082546;28;19931;-68
2021/12/14 06:10:52;;;;;;;;;;;;;;;;;;5080537;28;19928;-68
2021/12/14 06:13:22;;;;;;;;;;;;;;;;;;5091026;28;20304;-68
2021/12/14 06:15:53;;;;;;;;;;;;;;;;;;5084320;28;19932;-70
2021/12/14 06:18:26;;;;;;;;;;;;;;;;;;5087661;28;19923;-68
2021/12/14 06:21:02;;;;;;;;;;;;;;;;;;5085257;28;19931;-68
2021/12/14 06:23:32;;;;;;;;;;;;;;;;;;5084378;28;19935;-68
2021/12/14 06:25:59;;;;;;;;;;;;;;;;;;5092242;28;19928;-68
2021/12/14 06:28:29;;;;;;;;;;;;;;;;;;5085682;28;19981;-68
2021/12/14 06:30:56;;;;;;;;;;;;;;;;;;5082219;28;19928;-68
2021/12/14 06:33:25;;;;;;;;;;;;;;;;;;5081311;28;19934;-69
2021/12/14 06:35:58;;;;;;;;;;;;;;;;;;5076276;28;20065;-68
2021/12/14 06:38:28;;;;;;;;;;;;;;;;;;5084377;28;19924;-68
2021/12/14 06:40:59;;;;;;;;;;;;;;;;;;5085791;28;20011;-69
2021/12/14 06:43:31;;;;;;;;;;;;;;;;;;5075610;28;19928;-68
2021/12/14 06:46:00;;;;;;;;;;;;;;;;;;5077911;28;19932;-68
2021/12/14 06:48:43;;;;;;;;;;;;;;;;;;5057427;28;20010;-68
2021/12/14 06:51:13;;;;;;;;;;;;;;;;;;5068912;28;19936;-68
2021/12/14 06:53:45;;;;;;;;;;;;;;;;;;5076791;28;19947;-68
2021/12/14 06:56:15;;;;;;;;;;;;;;;;;;5085076;28;20748;-68
2021/12/14 06:58:47;;;;;;;;;;;;;;;;;;5081248;28;22146;-68
2021/12/14 07:01:19;;;;;;;;;;;;;;;;;;5077761;28;20388;-68
2021/12/14 07:03:51;;;;;;;;;;;;;;;;;;5070016;28;19988;-70
2021/12/14 07:06:19;;;;;;;;;;;;;;;;;;5085618;28;19935;-69
2021/12/14 07:08:49;;;;;;;;;;;;;;;;;;5075578;28;19928;-69
2021/12/14 07:11:17;;;;;;;;;;;;;;;;;;5084943;28;19931;-69
2021/12/14 07:13:49;;;;;;;;;;;;;;;;;;5078308;28;19978;-70
2021/12/14 07:16:21;;;;;;;;;;;;;;;;;;5080767;28;19932;-71
2021/12/14 07:18:52;;;;;;;;;;;;;;;;;;5081344;28;19936;-70
2021/12/14 07:21:24;;;;;;;;;;;;;;;;;;5082751;28;19977;-69
2021/12/14 07:23:54;;;;;;;;;;;;;;;;;;5085047;28;19981;-68
2021/12/14 07:26:21;;;;;;;;;;;;;;;;;;5092367;28;19981;-69
2021/12/14 07:28:53;;;;;;;;;;;;;;;;;;5087303;28;19927;-70
2021/12/14 07:31:22;;;;;;;;;;;;;;;;;;5100158;28;19975;-69
2021/12/14 07:33:49;;;;;;;;;;;;;;;;;;5079431;28;19925;-68
2021/12/14 07:36:23;;;;;;;;;;;;;;;;;;5098959;28;19931;-68
2021/12/14 07:38:55;;;;;;;;;;;;;;;;;;5085237;28;20345;-68
2021/12/14 07:41:26;;;;;;;;;;;;;;;;;;5097809;28;19924;-69
2021/12/14 07:43:57;;;;;;;;;;;;;;;;;;5082457;28;19925;-69
2021/12/14 07:46:28;;;;;;;;;;;;;;;;;;5093958;28;19940;-67
2021/12/14 07:48:56;;;;;;;;;;;;;;;;;;5062299;28;19932;-66
2021/12/14 07:51:30;;;;;;;;;;;;;;;;;;5097933;28;19975;-69
2021/12/14 07:54:05;;;;;;;;;;;;;;;;;;5084844;28;19924;-69
2021/12/14 07:56:32;;;;;;;;;;;;;;;;;;5072863;28;20022;-69
2021/12/14 07:59:02;;;;;;;;;;;;;;;;;;5087206;28;19924;-69
2021/12/14 08:01:32;;;;;;;;;;;;;;;;;;5098905;28;20019;-68
2021/12/14 08:04:02;;;;;;;;;;;;;;;;;;5085477;28;20271;-69
2021/12/14 08:06:33;;;;;;;;;;;;;;;;;;5084389;28;20346;-67
2021/12/14 08:09:05;;;;;;;;;;;;;;;;;;5082532;28;19924;-67
2021/12/14 08:14:09;;;;;;;;;;;;;;;;;;5064649;28;20286;-71
2021/12/14 08:16:39;;;;;;;;;;;;;;;;;;5059619;28;19932;-68
2021/12/14 08:19:09;;;;;;;;;;;;;;;;;;5073007;28;19928;-68
2021/12/14 08:21:38;;;;;;;;;;;;;;;;;;5069883;28;19928;-70
2021/12/14 08:24:06;;;;;;;;;;;;;;;;;;5090569;28;20507;-67
2021/12/14 08:26:37;;;;;;;;;;;;;;;;;;5092953;28;19943;-69
2021/12/14 08:29:07;;;;;;;;;;;;;;;;;;5087742;28;19924;-69
2021/12/14 08:31:34;;;;;;;;;;;;;;;;;;5055153;28;19925;-68
2021/12/14 08:34:06;;;;;;;;;;;;;;;;;;5084276;28;19929;-68
2021/12/14 08:36:34;;;;;;;;;;;;;;;;;;5070839;28;19993;-69
2021/12/14 08:39:03;;;;;;;;;;;;;;;;;;5085759;28;20540;-69
2021/12/14 08:41:32;;;;;;;;;;;;;;;;;;5087784;28;19924;-70
2021/12/14 08:44:10;;;;;;;;;;;;;;;;;;5090325;28;19932;-69
2021/12/14 08:46:39;;;;;;;;;;;;;;;;;;5081535;28;19928;-69
2021/12/14 08:49:09;;;;;;;;;;;;;;;;;;5086595;28;19924;-71
2021/12/14 08:51:40;;;;;;;;;;;;;;;;;;5085500;28;19985;-69
2021/12/14 08:54:09;;;;;;;;;;;;;;;;;;5086027;28;20342;-70
2021/12/14 08:56:39;;;;;;;;;;;;;;;;;;5063067;28;19924;-73
2021/12/14 08:59:10;;;;;;;;;;;;;;;;;;5088594;28;19923;-68
2021/12/14 09:01:40;;;;;;;;;;;;;;;;;;5085871;28;19928;-70
2021/12/14 09:04:10;;;;;;;;;;;;;;;;;;5076749;28;19927;-69
2021/12/14 09:06:40;;;;;;;;;;;;;;;;;;5080290;28;19923;-68
2021/12/14 09:09:09;;;;;;;;;;;;;;;;;;5083952;28;19932;-69
2021/12/14 09:11:40;;;;;;;;;;;;;;;;;;5081183;28;19928;-70
2021/12/14 09:14:16;;;;;;;;;;;;;;;;;;5081462;28;19932;-70
2021/12/14 09:16:47;;;;;;;;;;;;;;;;;;5084821;28;19924;-71
2021/12/14 09:19:20;;;;;;;;;;;;;;;;;;5085250;28;19934;-69
2021/12/14 09:21:51;;;;;;;;;;;;;;;;;;5083862;28;19932;-70
2021/12/14 09:24:26;;;;;;;;;;;;;;;;;;5083620;28;19925;-70
2021/12/14 09:26:56;;;;;;;;;;;;;;;;;;5085737;28;20023;-70
2021/12/14 09:29:24;;;;;;;;;;;;;;;;;;5087078;28;19932;-70
2021/12/14 09:31:55;;;;;;;;;;;;;;;;;;5086567;28;19927;-71
2021/12/14 09:34:38;;;;;;;;;;;;;;;;;;5072211;28;19955;-72
2021/12/14 09:37:09;;;;;;;;;;;;;;;;;;5083754;28;19935;-72
2021/12/14 09:39:43;;;;;;;;;;;;;;;;;;5082421;28;19934;-69
2021/12/14 09:42:16;;;;;;;;;;;;;;;;;;5083954;28;19935;-71
2021/12/14 09:44:48;;;;;;;;;;;;;;;;;;5080092;28;21548;-67
2021/12/14 09:47:18;;;;;;;;;;;;;;;;;;5066126;28;19924;-69
2021/12/14 09:49:53;;;;;;;;;;;;;;;;;;5059333;28;19924;-68
2021/12/14 09:52:24;;;;;;;;;;;;;;;;;;5058817;28;19928;-70
2021/12/14 09:54:53;;;;;;;;;;;;;;;;;;5037675;28;19928;-70
2021/12/14 09:57:24;;;;;;;;;;;;;;;;;;5058514;28;20293;-69
2021/12/14 09:59:54;;;;;;;;;;;;;;;;;;5059209;28;19963;-71
2021/12/14 10:02:24;;;;;;;;;;;;;;;;;;5059891;28;20343;-69
2021/12/14 10:04:52;;;;;;;;;;;;;;;;;;5052401;28;20516;-71
2021/12/14 10:07:23;;;;;;;;;;;;;;;;;;5057920;28;20382;-73
2021/12/14 10:09:53;;;;;;;;;;;;;;;;;;5063092;28;19973;-69
2021/12/14 10:14:54;;;;;;;;;;;;;;;;;;5056484;28;20259;-70
2021/12/14 10:17:25;;;;;;;;;;;;;;;;;;5053257;28;20346;-68
2021/12/14 10:19:59;;;;;;;;;;;;;;;;;;5062269;28;20533;-68
2021/12/14 10:22:34;;;;;;;;;;;;;;;;;;5056806;28;20867;-68
2021/12/14 10:25:05;;;;;;;;;;;;;;;;;;5059400;28;20301;-70
2021/12/14 10:27:35;;;;;;;;;;;;;;;;;;5053984;28;19925;-70
2021/12/14 10:30:06;;;;;;;;;;;;;;;;;;5060355;28;19932;-69
2021/12/14 10:32:35;;;;;;;;;;;;;;;;;;5047019;28;20345;-70
2021/12/14 10:35:03;;;;;;;;;;;;;;;;;;5063521;28;19925;-70
2021/12/14 10:43:59;;;;;;;;;;;;;;;;;;5066056;28;19928;-71
2021/12/14 10:46:31;;;;;;;;;;;;;;;;;;5067807;28;19927;-71
2021/12/14 10:49:01;;;;;;;;;;;;;;;;;;5066027;28;19928;-70
2021/12/14 10:51:33;;;;;;;;;;;;;;;;;;5084979;28;20369;-69
2021/12/14 10:54:04;;;;;;;;;;;;;;;;;;5083554;28;19927;-68
2021/12/14 10:56:36;;;;;;;;;;;;;;;;;;5078826;28;19934;-72
2021/12/14 10:59:06;;;;;;;;;;;;;;;;;;5081883;28;19928;-69
2021/12/14 11:01:39;;;;;;;;;;;;;;;;;;5072309;28;19935;-69
2021/12/14 11:04:22;;;;;;;;;;;;;;;;;;5090929;28;20667;-70
2021/12/14 11:06:50;;;;;;;;;;;;;;;;;;5087353;28;19928;-73
2021/12/14 11:12:07;;;;;;;;;;;;;;;;;;5089006;28;19924;-72
2021/12/14 11:14:46;;;;;;;;;;;;;;;;;;5087277;28;19939;-71
2021/12/14 11:20:11;;;;;;;;;;;;;;;;;;5084321;28;19924;-72
2021/12/14 11:22:39;;;;;;;;;;;;;;;;;;5086817;28;19935;-73
2021/12/14 11:25:16;;;;;;;;;;;;;;;;;;5091537;28;19924;-70
2021/12/14 11:27:44;;;;;;;;;;;;;;;;;;5090104;28;20005;-70
2021/12/14 11:30:16;;;;;;;;;;;;;;;;;;5088511;28;19935;-70
2021/12/14 11:32:48;;;;;;;;;;;;;;;;;;5082873;28;19924;-70
2021/12/14 11:35:18;;;;;;;;;;;;;;;;;;5089437;28;19932;-70
2021/12/14 11:37:47;;;;;;;;;;;;;;;;;;5086518;28;19943;-70
2021/12/14 11:40:21;;;;;;;;;;;;;;;;;;5099720;28;19938;-69
2021/12/14 11:42:48;;;;;;;;;;;;;;;;;;5079584;28;20024;-70
2021/12/14 11:45:19;;;;;;;;;;;;;;;;;;5084235;28;20092;-70
2021/12/14 11:47:52;;;;;;;;;;;;;;;;;;5084127;28;19932;-70
2021/12/14 11:50:23;;;;;;;;;;;;;;;;;;5086560;28;19924;-70
2021/12/14 11:52:54;;;;;;;;;;;;;;;;;;5075553;28;19940;-69
2021/12/14 11:55:24;;;;;;;;;;;;;;;;;;5085357;28;19924;-72
2021/12/14 11:57:56;;;;;;;;;;;;;;;;;;5080730;28;19989;-71
2021/12/14 12:00:32;;;;;;;;;;;;;;;;;;5092233;28;19932;-69
2021/12/14 12:03:00;;;;;;;;;;;;;;;;;;5083781;28;19924;-71
2021/12/14 12:05:58;;;;;;;;;;;;;;;;;;5083987;28;19950;-67
2021/12/14 12:11:13;;;;;;;;;;;;;;;;;;5086815;28;19984;-71
2021/12/14 12:13:44;;;;;;;;;;;;;;;;;;5066969;28;19931;-70
2021/12/14 12:16:16;;;;;;;;;;;;;;;;;;5080377;28;20252;-70
2021/12/14 12:18:46;;;;;;;;;;;;;;;;;;5085891;28;19927;-69
2021/12/14 12:21:14;;;;;;;;;;;;;;;;;;5083587;28;19934;-71
2021/12/14 12:23:48;;;;;;;;;;;;;;;;;;5084944;28;20818;-71
2021/12/14 12:26:19;;;;;;;;;;;;;;;;;;5088793;28;19935;-71
2021/12/14 12:28:50;;;;;;;;;;;;;;;;;;5081136;28;19977;-72
2021/12/14 12:31:21;;;;;;;;;;;;;;;;;;5087702;28;19924;-69
2021/12/14 12:33:53;;;;;;;;;;;;;;;;;;5079884;28;19934;-71
2021/12/14 12:36:37;;;;;;;;;;;;;;;;;;5084298;28;19924;-69
2021/12/14 12:39:05;;;;;;;;;;;;;;;;;;5085864;28;20396;-71
2021/12/14 12:41:40;;;;;;;;;;;;;;;;;;5097519;28;20379;-69
2021/12/14 12:44:16;;;;;;;;;;;;;;;;;;5081579;28;19928;-69
2021/12/14 12:46:48;;;;;;;;;;;;;;;;;;5063149;28;19955;-71
2021/12/14 12:49:15;;;;;;;;;;;;;;;;;;5062199;28;19925;-71
2021/12/14 12:51:46;;;;;;;;;;;;;;;;;;5063570;28;20003;-71
2021/12/14 12:54:28;;;;;;;;;;;;;;;;;;5065862;28;19935;-71
2021/12/14 12:56:59;;;;;;;;;;;;;;;;;;5062010;28;19932;-69
2021/12/14 12:59:32;;;;;;;;;;;;;;;;;;5067437;28;19929;-70
2021/12/14 13:02:03;;;;;;;;;;;;;;;;;;5053233;28;19930;-69
2021/12/14 13:04:35;;;;;;;;;;;;;;;;;;5066528;28;19924;-72
2021/12/14 13:07:07;;;;;;;;;;;;;;;;;;5064663;28;19981;-71
2021/12/14 13:09:35;;;;;;;;;;;;;;;;;;5043837;28;20568;-71
2021/12/14 13:12:04;;;;;;;;;;;;;;;;;;5060844;28;20005;-69
2021/12/14 13:14:34;;;;;;;;;;;;;;;;;;5048460;28;20008;-73
2021/12/14 13:17:14;;;;;;;;;;;;;;;;;;5063508;28;19944;-73
2021/12/14 13:19:46;;;;;;;;;;;;;;;;;;5063989;28;19925;-74
2021/12/14 13:22:17;;;;;;;;;;;;;;;;;;5058043;28;19970;-71
2021/12/14 13:24:47;;;;;;;;;;;;;;;;;;5062761;28;19928;-70
2021/12/14 13:27:17;;;;;;;;;;;;;;;;;;5064226;28;19931;-70
2021/12/14 13:29:48;;;;;;;;;;;;;;;;;;5064703;28;19925;-70
2021/12/14 13:32:20;;;;;;;;;;;;;;;;;;5064681;28;19936;-70
2021/12/14 13:34:51;;;;;;;;;;;;;;;;;;5060567;28;20268;-73
2021/12/14 13:37:19;;;;;;;;;;;;;;;;;;5059298;28;19925;-70
2021/12/14 13:39:50;;;;;;;;;;;;;;;;;;5062417;28;19939;-70
2021/12/14 13:42:20;;;;;;;;;;;;;;;;;;5061660;28;19928;-71
2021/12/14 13:44:51;;;;;;;;;;;;;;;;;;5057824;28;19989;-71
2021/12/14 13:47:20;;;;;;;;;;;;;;;;;;5080841;28;19960;-71
2021/12/14 13:49:53;;;;;;;;;;;;;;;;;;5069587;28;20524;-70
2021/12/14 13:52:23;;;;;;;;;;;;;;;;;;5079703;28;19939;-73
2021/12/14 13:54:51;;;;;;;;;;;;;;;;;;5084320;28;19928;-69
2021/12/14 13:57:22;;;;;;;;;;;;;;;;;;5079544;28;19928;-71
2021/12/14 13:59:59;;;;;;;;;;;;;;;;;;5083582;28;19932;-70
2021/12/14 14:02:32;;;;;;;;;;;;;;;;;;5084675;28;19924;-70
2021/12/14 14:05:04;;;;;;;;;;;;;;;;;;5089189;28;19943;-71
2021/12/14 14:07:32;;;;;;;;;;;;;;;;;;5081887;28;20240;-70
2021/12/14 14:10:05;;;;;;;;;;;;;;;;;;5081142;28;19985;-71
2021/12/14 14:12:37;;;;;;;;;;;;;;;;;;5079984;28;19936;-70
2021/12/14 14:15:08;;;;;;;;;;;;;;;;;;5081355;28;20167;-72
2021/12/14 14:17:38;;;;;;;;;;;;;;;;;;5079000;28;19981;-71
2021/12/14 14:20:11;;;;;;;;;;;;;;;;;;5088485;28;19939;-73
2021/12/14 14:22:41;;;;;;;;;;;;;;;;;;5060536;28;19928;-74
2021/12/14 14:25:11;;;;;;;;;;;;;;;;;;5083021;28;20388;-69
2021/12/14 14:27:42;;;;;;;;;;;;;;;;;;5079392;28;20414;-68
2021/12/14 14:30:16;;;;;;;;;;;;;;;;;;5084724;28;19930;-69
2021/12/14 14:32:48;;;;;;;;;;;;;;;;;;5077482;28;20468;-69
2021/12/14 14:35:16;;;;;;;;;;;;;;;;;;5081537;28;19940;-69
2021/12/14 14:37:47;;;;;;;;;;;;;;;;;;5079081;28;19968;-69
2021/12/14 14:40:19;;;;;;;;;;;;;;;;;;5083489;28;19924;-68
2021/12/14 14:42:49;;;;;;;;;;;;;;;;;;5079273;28;19924;-68
2021/12/14 14:45:20;;;;;;;;;;;;;;;;;;5079668;28;19924;-69
2021/12/14 14:47:51;;;;;;;;;;;;;;;;;;5063369;28;19928;-72
2021/12/14 14:50:20;;;;;;;;;;;;;;;;;;5063604;28;19947;-71
2021/12/14 14:52:53;;;;;;;;;;;;;;;;;;5057690;28;20007;-70
2021/12/14 14:55:26;;;;;;;;;;;;;;;;;;5055433;28;19958;-68
2021/12/14 14:58:00;;;;;;;;;;;;;;;;;;5059009;28;19933;-68
2021/12/14 15:00:34;;;;;;;;;;;;;;;;;;5060904;28;19924;-68
2021/12/14 15:03:04;;;;;;;;;;;;;;;;;;5057357;28;19973;-70
2021/12/14 15:05:34;;;;;;;;;;;;;;;;;;5062124;28;19932;-74
2021/12/14 15:08:03;;;;;;;;;;;;;;;;;;5055151;28;19932;-70
2021/12/14 15:10:34;;;;;;;;;;;;;;;;;;5054366;28;19959;-67
2021/12/14 15:13:03;;;;;;;;;;;;;;;;;;5060868;28;19928;-67
2021/12/14 15:15:33;;;;;;;;;;;;;;;;;;5059687;28;20421;-70
2021/12/14 15:18:04;;;;;;;;;;;;;;;;;;5061636;28;19932;-70
2021/12/14 15:20:38;;;;;;;;;;;;;;;;;;5062030;28;19932;-70
2021/12/14 15:23:34;;;;;;;;;;;;;;;;;;5058827;28;20023;-71
2021/12/14 15:26:03;;;;;;;;;;;;;;;;;;5064402;28;19920;-71
2021/12/14 15:28:34;;;;;;;;;;;;;;;;;;5049824;28;19981;-70
2021/12/14 15:31:04;;;;;;;;;;;;;;;;;;5062520;28;19915;-70
2021/12/14 15:33:32;;;;;;;;;;;;;;;;;;5061268;28;20130;-69
2021/12/14 15:36:02;;;;;;;;;;;;;;;;;;5065857;28;19939;-71
2021/12/14 15:38:35;;;;;;;;;;;;;;;;;;5060266;28;19970;-70
2021/12/14 15:41:08;;;;;;;;;;;;;;;;;;5066509;28;20008;-70
2021/12/14 15:43:42;;;;;;;;;;;;;;;;;;5059992;28;19935;-69
2021/12/14 15:46:13;;;;;;;;;;;;;;;;;;5064286;28;19998;-69
2021/12/14 15:48:44;;;;;;;;;;;;;;;;;;5060885;28;20464;-69
2021/12/14 15:51:17;;;;;;;;;;;;;;;;;;5066449;28;20580;-70
2021/12/14 15:53:50;;;;;;;;;;;;;;;;;;5048306;28;19925;-70
2021/12/14 15:56:22;;;;;;;;;;;;;;;;;;5073784;28;20342;-68
2021/12/14 15:58:57;;;;;;;;;;;;;;;;;;5060342;28;19944;-68
2021/12/14 16:01:31;;;;;;;;;;;;;;;;;;5061729;28;21198;-68
2021/12/14 16:04:03;;;;;;;;;;;;;;;;;;5066747;28;20196;-73
2021/12/14 16:06:32;;;;;;;;;;;;;;;;;;5070784;28;19924;-71
2021/12/14 16:09:03;;;;;;;;;;;;;;;;;;5062923;28;19924;-71
2021/12/14 16:11:45;;;;;;;;;;;;;;;;;;5073381;28;19949;-71
2021/12/14 16:17:12;;;;;;;;;;;;;;;;;;5069488;28;19932;-71
2021/12/14 16:19:41;;;;;;;;;;;;;;;;;;5058085;28;19928;-71
2021/12/14 16:22:12;;;;;;;;;;;;;;;;;;5071476;28;19924;-71
2021/12/14 16:24:41;;;;;;;;;;;;;;;;;;5063059;28;19928;-72
2021/12/14 16:27:13;;;;;;;;;;;;;;;;;;5065437;28;19928;-70
2021/12/14 16:29:44;;;;;;;;;;;;;;;;;;5069042;28;20572;-73
2021/12/14 16:32:12;;;;;;;;;;;;;;;;;;5077577;28;19928;-74
2021/12/14 16:34:41;;;;;;;;;;;;;;;;;;5062154;28;19939;-74
2021/12/14 16:37:13;;;;;;;;;;;;;;;;;;5051024;28;19925;-73
2021/12/14 16:39:43;;;;;;;;;;;;;;;;;;5063432;28;20509;-71
2021/12/14 16:42:12;;;;;;;;;;;;;;;;;;5063729;28;19985;-71
2021/12/14 16:44:44;;;;;;;;;;;;;;;;;;5063375;28;19977;-71
2021/12/14 16:47:13;;;;;;;;;;;;;;;;;;5080043;28;19924;-70
2021/12/14 16:49:42;;;;;;;;;;;;;;;;;;5084021;28;19924;-71
2021/12/14 16:52:14;;;;;;;;;;;;;;;;;;5080410;28;20184;-71
2021/12/14 16:54:45;;;;;;;;;;;;;;;;;;5058990;28;19924;-71
2021/12/14 16:57:13;;;;;;;;;;;;;;;;;;5082825;28;19927;-71
2021/12/14 16:59:43;;;;;;;;;;;;;;;;;;5082538;28;19931;-71
2021/12/14 17:02:14;;;;;;;;;;;;;;;;;;5067095;28;20312;-71
2021/12/14 17:04:43;;;;;;;;;;;;;;;;;;5079918;28;19932;-71
2021/12/14 17:07:17;;;;;;;;;;;;;;;;;;5081872;28;19939;-71
2021/12/14 17:09:49;;;;;;;;;;;;;;;;;;5082152;28;19931;-71
2021/12/14 17:12:20;;;;;;;;;;;;;;;;;;5078424;28;19935;-71
2021/12/14 17:14:52;;;;;;;;;;;;;;;;;;5082149;28;19932;-71
2021/12/14 17:17:20;;;;;;;;;;;;;;;;;;5087106;28;19931;-71
2021/12/14 17:19:51;;;;;;;;;;;;;;;;;;5084622;28;19951;-71
2021/12/14 17:22:20;;;;;;;;;;;;;;;;;;5086761;28;19924;-71
2021/12/14 17:24:50;;;;;;;;;;;;;;;;;;5082587;28;20598;-71
2021/12/14 17:27:22;;;;;;;;;;;;;;;;;;5086414;28;19924;-71
2021/12/14 17:29:55;;;;;;;;;;;;;;;;;;5083808;28;19936;-71
2021/12/14 17:32:28;;;;;;;;;;;;;;;;;;5085946;28;19928;-71
2021/12/14 17:34:59;;;;;;;;;;;;;;;;;;5072972;28;19928;-71
2021/12/14 17:37:43;;;;;;;;;;;;;;;;;;5084243;28;19971;-71
2021/12/14 17:40:16;;;;;;;;;;;;;;;;;;5082787;28;19936;-71
2021/12/14 17:42:47;;;;;;;;;;;;;;;;;;5088547;28;20311;-70
2021/12/14 17:45:20;;;;;;;;;;;;;;;;;;5084056;28;19935;-73
2021/12/14 17:47:50;;;;;;;;;;;;;;;;;;5063068;28;19928;-70
2021/12/14 17:50:24;;;;;;;;;;;;;;;;;;5052646;28;19925;-69
2021/12/14 17:52:56;;;;;;;;;;;;;;;;;;5059541;28;19924;-69
2021/12/14 17:55:27;;;;;;;;;;;;;;;;;;5061272;28;19992;-69
2021/12/14 17:58:10;;;;;;;;;;;;;;;;;;5065112;28;19979;-70
2021/12/14 18:00:41;;;;;;;;;;;;;;;;;;5056897;28;19928;-70
2021/12/14 18:03:10;;;;;;;;;;;;;;;;;;5063486;28;19928;-70
2021/12/14 18:05:39;;;;;;;;;;;;;;;;;;5034091;28;19994;-70